sensor_id;sensor_type;location;lat;lon;timestamp;P1;durP1;ratioP1;P2;durP2;ratioP2
29878;SDS011;16752;53.364;-1.488;2023-05-10T00:02:18;13.48;;;3.97;;
29878;SDS011;16752;53.364;-1.488;2023-05-10T00:05:05;12.45;;;3.30;;
29878;SDS011;16752;53.364;-1.488;2023-05-10T00:07:49;14.15;;;4.82;;
29878;SDS011;16752;53.364;-1.488;2023-05-10T00:10:36;12.50;;;4.05;;
29878;SDS011;16752;53.364;-1.488;2023-05-10T00:13:21;14.15;;;4.38;;
29878;SDS011;16752;53.364;-1.488;2023-05-10T00:16:05;8.77;;;3.83;;
29878;SDS011;16752;53.364;-1.488;2023-05-10T00:18:49;12.65;;;2.95;;
29878;SDS011;16752;53.364;-1.488;2023-05-10T00:21:33;9.88;;;3.72;;
29878;SDS011;16752;53.364;-1.488;2023-05-10T00:24:17;9.32;;;3.50;;
29878;SDS011;16752;53.364;-1.488;2023-05-10T00:27:01;12.15;;;3.35;;
29878;SDS011;16752;53.364;-1.488;2023-05-10T00:29:50;9.45;;;2.75;;
29878;SDS011;16752;53.364;-1.488;2023-05-10T00:32:34;8.40;;;2.75;;
29878;SDS011;16752;53.364;-1.488;2023-05-10T00:35:19;13.30;;;2.90;;
29878;SDS011;16752;53.364;-1.488;2023-05-10T00:38:03;18.55;;;3.83;;
29878;SDS011;16752;53.364;-1.488;2023-05-10T00:40:48;9.68;;;3.40;;
29878;SDS011;16752;53.364;-1.488;2023-05-10T00:43:32;11.10;;;3.40;;
29878;SDS011;16752;53.364;-1.488;2023-05-10T00:46:16;13.95;;;3.40;;
29878;SDS011;16752;53.364;-1.488;2023-05-10T00:49:00;17.55;;;3.72;;
29878;SDS011;16752;53.364;-1.488;2023-05-10T00:51:44;11.63;;;3.45;;
29878;SDS011;16752;53.364;-1.488;2023-05-10T00:54:29;11.18;;;3.28;;
29878;SDS011;16752;53.364;-1.488;2023-05-10T00:57:14;11.90;;;3.92;;
29878;SDS011;16752;53.364;-1.488;2023-05-10T00:59:58;13.55;;;3.33;;
29878;SDS011;16752;53.364;-1.488;2023-05-10T01:02:43;13.70;;;4.07;;
29878;SDS011;16752;53.364;-1.488;2023-05-10T01:05:30;11.00;;;3.72;;
29878;SDS011;16752;53.364;-1.488;2023-05-10T01:08:14;9.90;;;3.05;;
29878;SDS011;16752;53.364;-1.488;2023-05-10T01:10:58;13.27;;;4.15;;
29878;SDS011;16752;53.364;-1.488;2023-05-10T01:13:42;12.63;;;4.03;;
29878;SDS011;16752;53.364;-1.488;2023-05-10T01:16:32;14.02;;;3.45;;
29878;SDS011;16752;53.364;-1.488;2023-05-10T01:19:23;15.00;;;3.20;;
29878;SDS011;16752;53.364;-1.488;2023-05-10T01:25:25;9.35;;;3.22;;
29878;SDS011;16752;53.364;-1.488;2023-05-10T01:41:17;12.43;;;2.83;;
29878;SDS011;16752;53.364;-1.488;2023-05-10T01:46:57;14.48;;;4.20;;
29878;SDS011;16752;53.364;-1.488;2023-05-10T01:49:50;13.73;;;3.13;;
29878;SDS011;16752;53.364;-1.488;2023-05-10T01:52:38;12.70;;;3.33;;
29878;SDS011;16752;53.364;-1.488;2023-05-10T01:55:30;9.40;;;2.97;;
29878;SDS011;16752;53.364;-1.488;2023-05-10T01:58:35;15.18;;;3.63;;
29878;SDS011;16752;53.364;-1.488;2023-05-10T02:01:23;18.58;;;4.20;;
29878;SDS011;16752;53.364;-1.488;2023-05-10T02:04:09;13.70;;;3.47;;
29878;SDS011;16752;53.364;-1.488;2023-05-10T02:06:56;17.98;;;3.67;;
29878;SDS011;16752;53.364;-1.488;2023-05-10T02:09:41;14.57;;;3.95;;
29878;SDS011;16752;53.364;-1.488;2023-05-10T02:12:31;16.63;;;4.13;;
29878;SDS011;16752;53.364;-1.488;2023-05-10T02:15:20;18.05;;;3.53;;
29878;SDS011;16752;53.364;-1.488;2023-05-10T02:18:09;15.07;;;4.18;;
29878;SDS011;16752;53.364;-1.488;2023-05-10T02:20:55;20.35;;;3.75;;
29878;SDS011;16752;53.364;-1.488;2023-05-10T02:23:42;14.98;;;4.00;;
29878;SDS011;16752;53.364;-1.488;2023-05-10T02:26:26;11.50;;;3.15;;
29878;SDS011;16752;53.364;-1.488;2023-05-10T02:29:11;15.60;;;3.75;;
29878;SDS011;16752;53.364;-1.488;2023-05-10T02:31:57;20.25;;;4.40;;
29878;SDS011;16752;53.364;-1.488;2023-05-10T02:34:43;13.27;;;4.15;;
29878;SDS011;16752;53.364;-1.488;2023-05-10T02:37:30;15.95;;;5.28;;
29878;SDS011;16752;53.364;-1.488;2023-05-10T02:40:17;13.27;;;4.63;;
29878;SDS011;16752;53.364;-1.488;2023-05-10T02:43:09;19.00;;;4.95;;
29878;SDS011;16752;53.364;-1.488;2023-05-10T02:45:56;22.58;;;6.25;;
29878;SDS011;16752;53.364;-1.488;2023-05-10T02:48:40;14.82;;;4.82;;
29878;SDS011;16752;53.364;-1.488;2023-05-10T02:51:25;21.95;;;5.25;;
29878;SDS011;16752;53.364;-1.488;2023-05-10T02:54:18;15.43;;;5.38;;
29878;SDS011;16752;53.364;-1.488;2023-05-10T02:57:08;15.70;;;5.00;;
29878;SDS011;16752;53.364;-1.488;2023-05-10T02:59:58;19.83;;;4.65;;
29878;SDS011;16752;53.364;-1.488;2023-05-10T03:02:44;9.05;;;3.83;;
29878;SDS011;16752;53.364;-1.488;2023-05-10T03:05:31;20.92;;;4.88;;
29878;SDS011;16752;53.364;-1.488;2023-05-10T03:08:17;19.08;;;4.82;;
29878;SDS011;16752;53.364;-1.488;2023-05-10T03:20:36;17.98;;;5.60;;
29878;SDS011;16752;53.364;-1.488;2023-05-10T03:26:30;14.30;;;4.03;;
29878;SDS011;16752;53.364;-1.488;2023-05-10T03:29:15;13.05;;;4.32;;
29878;SDS011;16752;53.364;-1.488;2023-05-10T03:32:01;19.00;;;4.70;;
29878;SDS011;16752;53.364;-1.488;2023-05-10T03:34:54;14.20;;;4.10;;
29878;SDS011;16752;53.364;-1.488;2023-05-10T03:37:52;11.73;;;4.65;;
29878;SDS011;16752;53.364;-1.488;2023-05-10T03:40:38;10.90;;;4.20;;
29878;SDS011;16752;53.364;-1.488;2023-05-10T03:43:23;14.13;;;5.07;;
29878;SDS011;16752;53.364;-1.488;2023-05-10T03:46:13;12.65;;;4.07;;
29878;SDS011;16752;53.364;-1.488;2023-05-10T03:48:57;17.80;;;5.53;;
29878;SDS011;16752;53.364;-1.488;2023-05-10T03:51:46;13.45;;;5.40;;
29878;SDS011;16752;53.364;-1.488;2023-05-10T03:54:33;12.65;;;4.93;;
29878;SDS011;16752;53.364;-1.488;2023-05-10T03:57:18;10.75;;;4.50;;
29878;SDS011;16752;53.364;-1.488;2023-05-10T04:00:04;18.58;;;5.40;;
29878;SDS011;16752;53.364;-1.488;2023-05-10T04:02:49;12.13;;;5.20;;
29878;SDS011;16752;53.364;-1.488;2023-05-10T04:05:34;16.70;;;5.65;;
29878;SDS011;16752;53.364;-1.488;2023-05-10T04:08:18;18.45;;;5.68;;
29878;SDS011;16752;53.364;-1.488;2023-05-10T04:11:06;15.27;;;5.00;;
29878;SDS011;16752;53.364;-1.488;2023-05-10T04:13:51;16.63;;;5.43;;
29878;SDS011;16752;53.364;-1.488;2023-05-10T04:16:39;10.18;;;4.78;;
29878;SDS011;16752;53.364;-1.488;2023-05-10T04:19:24;9.80;;;4.63;;
29878;SDS011;16752;53.364;-1.488;2023-05-10T04:22:17;19.42;;;5.88;;
29878;SDS011;16752;53.364;-1.488;2023-05-10T04:25:23;18.02;;;5.43;;
29878;SDS011;16752;53.364;-1.488;2023-05-10T04:28:08;16.73;;;5.38;;
29878;SDS011;16752;53.364;-1.488;2023-05-10T04:30:52;16.02;;;6.40;;
29878;SDS011;16752;53.364;-1.488;2023-05-10T04:33:37;19.08;;;6.03;;
29878;SDS011;16752;53.364;-1.488;2023-05-10T04:36:21;11.68;;;5.10;;
29878;SDS011;16752;53.364;-1.488;2023-05-10T04:39:05;16.20;;;5.53;;
29878;SDS011;16752;53.364;-1.488;2023-05-10T04:41:52;12.93;;;6.32;;
29878;SDS011;16752;53.364;-1.488;2023-05-10T04:44:36;17.15;;;8.32;;
29878;SDS011;16752;53.364;-1.488;2023-05-10T04:47:20;12.25;;;5.85;;
29878;SDS011;16752;53.364;-1.488;2023-05-10T04:50:04;12.93;;;5.32;;
29878;SDS011;16752;53.364;-1.488;2023-05-10T04:52:48;16.52;;;5.72;;
29878;SDS011;16752;53.364;-1.488;2023-05-10T04:55:32;13.93;;;6.45;;
29878;SDS011;16752;53.364;-1.488;2023-05-10T04:58:16;15.50;;;6.78;;
29878;SDS011;16752;53.364;-1.488;2023-05-10T05:01:07;17.40;;;6.03;;
29878;SDS011;16752;53.364;-1.488;2023-05-10T05:03:53;14.82;;;6.15;;
29878;SDS011;16752;53.364;-1.488;2023-05-10T05:06:37;10.80;;;5.88;;
29878;SDS011;16752;53.364;-1.488;2023-05-10T05:09:21;16.50;;;6.40;;
29878;SDS011;16752;53.364;-1.488;2023-05-10T05:12:05;12.55;;;5.97;;
29878;SDS011;16752;53.364;-1.488;2023-05-10T05:14:49;18.35;;;7.13;;
29878;SDS011;16752;53.364;-1.488;2023-05-10T05:17:33;19.38;;;7.30;;
29878;SDS011;16752;53.364;-1.488;2023-05-10T05:20:17;16.80;;;8.18;;
29878;SDS011;16752;53.364;-1.488;2023-05-10T05:23:02;13.90;;;6.72;;
29878;SDS011;16752;53.364;-1.488;2023-05-10T05:25:47;20.25;;;7.63;;
29878;SDS011;16752;53.364;-1.488;2023-05-10T05:28:31;17.63;;;6.80;;
29878;SDS011;16752;53.364;-1.488;2023-05-10T05:31:17;12.82;;;6.38;;
29878;SDS011;16752;53.364;-1.488;2023-05-10T05:34:01;16.73;;;7.32;;
29878;SDS011;16752;53.364;-1.488;2023-05-10T05:36:45;14.75;;;6.43;;
29878;SDS011;16752;53.364;-1.488;2023-05-10T05:39:29;13.60;;;6.60;;
29878;SDS011;16752;53.364;-1.488;2023-05-10T05:42:14;16.92;;;7.28;;
29878;SDS011;16752;53.364;-1.488;2023-05-10T05:44:59;16.27;;;6.80;;
29878;SDS011;16752;53.364;-1.488;2023-05-10T05:47:43;15.18;;;6.93;;
29878;SDS011;16752;53.364;-1.488;2023-05-10T05:50:27;19.00;;;5.95;;
29878;SDS011;16752;53.364;-1.488;2023-05-10T05:53:11;13.38;;;6.00;;
29878;SDS011;16752;53.364;-1.488;2023-05-10T05:55:56;14.98;;;6.50;;
29878;SDS011;16752;53.364;-1.488;2023-05-10T05:58:41;24.88;;;7.13;;
29878;SDS011;16752;53.364;-1.488;2023-05-10T06:01:25;23.10;;;7.18;;
29878;SDS011;16752;53.364;-1.488;2023-05-10T06:04:09;19.38;;;7.47;;
29878;SDS011;16752;53.364;-1.488;2023-05-10T06:06:54;15.25;;;7.35;;
29878;SDS011;16752;53.364;-1.488;2023-05-10T06:09:41;13.60;;;5.60;;
29878;SDS011;16752;53.364;-1.488;2023-05-10T06:12:28;19.30;;;7.78;;
29878;SDS011;16752;53.364;-1.488;2023-05-10T06:15:12;16.92;;;7.38;;
29878;SDS011;16752;53.364;-1.488;2023-05-10T06:17:56;16.48;;;6.40;;
29878;SDS011;16752;53.364;-1.488;2023-05-10T06:20:41;12.18;;;6.95;;
29878;SDS011;16752;53.364;-1.488;2023-05-10T06:23:27;18.65;;;7.20;;
29878;SDS011;16752;53.364;-1.488;2023-05-10T06:26:11;19.40;;;6.88;;
29878;SDS011;16752;53.364;-1.488;2023-05-10T06:28:55;16.25;;;7.25;;
29878;SDS011;16752;53.364;-1.488;2023-05-10T06:31:38;14.45;;;6.95;;
29878;SDS011;16752;53.364;-1.488;2023-05-10T06:34:23;14.02;;;6.13;;
29878;SDS011;16752;53.364;-1.488;2023-05-10T06:37:06;16.60;;;5.78;;
29878;SDS011;16752;53.364;-1.488;2023-05-10T06:39:51;11.90;;;5.35;;
29878;SDS011;16752;53.364;-1.488;2023-05-10T06:42:35;12.43;;;5.43;;
29878;SDS011;16752;53.364;-1.488;2023-05-10T06:45:19;10.70;;;4.70;;
29878;SDS011;16752;53.364;-1.488;2023-05-10T06:48:03;13.27;;;4.93;;
29878;SDS011;16752;53.364;-1.488;2023-05-10T06:50:47;14.25;;;5.60;;
29878;SDS011;16752;53.364;-1.488;2023-05-10T06:53:31;10.68;;;5.13;;
29878;SDS011;16752;53.364;-1.488;2023-05-10T06:56:16;13.88;;;5.70;;
29878;SDS011;16752;53.364;-1.488;2023-05-10T06:59:00;15.55;;;4.97;;
29878;SDS011;16752;53.364;-1.488;2023-05-10T07:01:44;7.13;;;4.05;;
29878;SDS011;16752;53.364;-1.488;2023-05-10T07:04:28;10.65;;;4.47;;
29878;SDS011;16752;53.364;-1.488;2023-05-10T07:07:12;8.68;;;4.18;;
29878;SDS011;16752;53.364;-1.488;2023-05-10T07:09:57;10.70;;;4.15;;
29878;SDS011;16752;53.364;-1.488;2023-05-10T07:12:41;10.73;;;3.90;;
29878;SDS011;16752;53.364;-1.488;2023-05-10T07:15:29;8.18;;;3.67;;
29878;SDS011;16752;53.364;-1.488;2023-05-10T07:18:33;7.28;;;3.47;;
29878;SDS011;16752;53.364;-1.488;2023-05-10T07:21:19;9.55;;;3.78;;
29878;SDS011;16752;53.364;-1.488;2023-05-10T07:29:27;10.35;;;3.45;;
29878;SDS011;16752;53.364;-1.488;2023-05-10T07:32:12;14.98;;;4.15;;
29878;SDS011;16752;53.364;-1.488;2023-05-10T07:34:56;14.52;;;4.15;;
29878;SDS011;16752;53.364;-1.488;2023-05-10T07:37:43;11.02;;;4.07;;
29878;SDS011;16752;53.364;-1.488;2023-05-10T07:40:32;10.93;;;3.65;;
29878;SDS011;16752;53.364;-1.488;2023-05-10T07:46:03;9.93;;;4.22;;
29878;SDS011;16752;53.364;-1.488;2023-05-10T07:48:51;8.57;;;3.60;;
29878;SDS011;16752;53.364;-1.488;2023-05-10T07:51:49;7.57;;;3.33;;
29878;SDS011;16752;53.364;-1.488;2023-05-10T07:54:34;7.88;;;3.10;;
29878;SDS011;16752;53.364;-1.488;2023-05-10T07:57:21;6.15;;;2.28;;
29878;SDS011;16752;53.364;-1.488;2023-05-10T08:00:08;6.85;;;2.83;;
29878;SDS011;16752;53.364;-1.488;2023-05-10T08:02:56;7.00;;;2.70;;
29878;SDS011;16752;53.364;-1.488;2023-05-10T08:05:40;8.82;;;3.13;;
29878;SDS011;16752;53.364;-1.488;2023-05-10T08:08:26;7.57;;;3.50;;
29878;SDS011;16752;53.364;-1.488;2023-05-10T08:11:11;11.00;;;2.53;;
29878;SDS011;16752;53.364;-1.488;2023-05-10T08:13:58;9.55;;;3.05;;
29878;SDS011;16752;53.364;-1.488;2023-05-10T08:16:51;9.82;;;2.75;;
29878;SDS011;16752;53.364;-1.488;2023-05-10T08:19:37;5.50;;;2.88;;
29878;SDS011;16752;53.364;-1.488;2023-05-10T08:22:21;10.18;;;4.50;;
29878;SDS011;16752;53.364;-1.488;2023-05-10T08:25:05;7.28;;;3.80;;
29878;SDS011;16752;53.364;-1.488;2023-05-10T08:27:51;11.15;;;3.55;;
29878;SDS011;16752;53.364;-1.488;2023-05-10T08:30:35;11.38;;;3.83;;
29878;SDS011;16752;53.364;-1.488;2023-05-10T08:33:19;7.35;;;3.40;;
29878;SDS011;16752;53.364;-1.488;2023-05-10T08:36:06;10.65;;;3.95;;
29878;SDS011;16752;53.364;-1.488;2023-05-10T08:38:51;8.98;;;4.93;;
29878;SDS011;16752;53.364;-1.488;2023-05-10T08:41:39;7.57;;;4.30;;
29878;SDS011;16752;53.364;-1.488;2023-05-10T08:44:24;8.75;;;3.25;;
29878;SDS011;16752;53.364;-1.488;2023-05-10T08:47:08;8.40;;;3.15;;
29878;SDS011;16752;53.364;-1.488;2023-05-10T08:49:53;6.22;;;2.60;;
29878;SDS011;16752;53.364;-1.488;2023-05-10T08:55:41;8.15;;;2.47;;
29878;SDS011;16752;53.364;-1.488;2023-05-10T08:58:30;7.55;;;2.45;;
29878;SDS011;16752;53.364;-1.488;2023-05-10T09:01:16;7.63;;;2.10;;
29878;SDS011;16752;53.364;-1.488;2023-05-10T09:04:04;3.35;;;1.13;;
29878;SDS011;16752;53.364;-1.488;2023-05-10T09:06:49;6.00;;;1.88;;
29878;SDS011;16752;53.364;-1.488;2023-05-10T09:09:33;3.47;;;1.52;;
29878;SDS011;16752;53.364;-1.488;2023-05-10T09:12:18;5.50;;;1.30;;
29878;SDS011;16752;53.364;-1.488;2023-05-10T09:15:03;5.68;;;1.40;;
29878;SDS011;16752;53.364;-1.488;2023-05-10T09:17:49;4.68;;;1.65;;
29878;SDS011;16752;53.364;-1.488;2023-05-10T09:20:33;3.90;;;1.70;;
29878;SDS011;16752;53.364;-1.488;2023-05-10T09:23:17;4.60;;;1.33;;
29878;SDS011;16752;53.364;-1.488;2023-05-10T09:26:02;4.03;;;1.35;;
29878;SDS011;16752;53.364;-1.488;2023-05-10T09:31:44;5.67;;;1.80;;
29878;SDS011;16752;53.364;-1.488;2023-05-10T09:34:34;14.95;;;2.10;;
29878;SDS011;16752;53.364;-1.488;2023-05-10T09:37:28;7.95;;;2.33;;
29878;SDS011;16752;53.364;-1.488;2023-05-10T09:40:14;6.38;;;2.88;;
29878;SDS011;16752;53.364;-1.488;2023-05-10T09:43:00;6.00;;;2.80;;
29878;SDS011;16752;53.364;-1.488;2023-05-10T09:45:45;6.15;;;2.47;;
29878;SDS011;16752;53.364;-1.488;2023-05-10T09:48:33;6.18;;;2.78;;
29878;SDS011;16752;53.364;-1.488;2023-05-10T09:51:20;5.32;;;2.00;;
29878;SDS011;16752;53.364;-1.488;2023-05-10T09:54:09;6.47;;;2.30;;
29878;SDS011;16752;53.364;-1.488;2023-05-10T09:56:58;5.50;;;2.20;;
29878;SDS011;16752;53.364;-1.488;2023-05-10T09:59:42;6.18;;;2.40;;
29878;SDS011;16752;53.364;-1.488;2023-05-10T10:02:30;7.65;;;2.50;;
29878;SDS011;16752;53.364;-1.488;2023-05-10T10:05:15;4.50;;;2.10;;
29878;SDS011;16752;53.364;-1.488;2023-05-10T10:08:00;8.52;;;2.13;;
29878;SDS011;16752;53.364;-1.488;2023-05-10T10:10:46;5.25;;;2.13;;
29878;SDS011;16752;53.364;-1.488;2023-05-10T10:13:30;7.82;;;2.25;;
29878;SDS011;16752;53.364;-1.488;2023-05-10T10:16:15;3.08;;;1.60;;
29878;SDS011;16752;53.364;-1.488;2023-05-10T10:19:00;3.28;;;1.85;;
29878;SDS011;16752;53.364;-1.488;2023-05-10T10:21:44;5.35;;;1.88;;
29878;SDS011;16752;53.364;-1.488;2023-05-10T10:24:28;3.15;;;1.45;;
29878;SDS011;16752;53.364;-1.488;2023-05-10T10:27:19;3.50;;;2.00;;
29878;SDS011;16752;53.364;-1.488;2023-05-10T10:30:25;8.07;;;1.42;;
29878;SDS011;16752;53.364;-1.488;2023-05-10T10:36:23;2.33;;;1.58;;
29878;SDS011;16752;53.364;-1.488;2023-05-10T10:39:10;4.18;;;1.73;;
29878;SDS011;16752;53.364;-1.488;2023-05-10T10:41:56;5.10;;;1.63;;
29878;SDS011;16752;53.364;-1.488;2023-05-10T10:44:41;2.55;;;1.40;;
29878;SDS011;16752;53.364;-1.488;2023-05-10T10:47:25;2.78;;;1.63;;
29878;SDS011;16752;53.364;-1.488;2023-05-10T10:50:15;3.92;;;1.88;;
29878;SDS011;16752;53.364;-1.488;2023-05-10T10:53:10;5.80;;;1.90;;
29878;SDS011;16752;53.364;-1.488;2023-05-10T10:56:11;4.38;;;1.55;;
29878;SDS011;16752;53.364;-1.488;2023-05-10T10:58:58;4.20;;;1.77;;
29878;SDS011;16752;53.364;-1.488;2023-05-10T11:01:43;5.13;;;1.80;;
29878;SDS011;16752;53.364;-1.488;2023-05-10T11:04:27;6.15;;;2.35;;
29878;SDS011;16752;53.364;-1.488;2023-05-10T11:07:18;5.65;;;2.50;;
29878;SDS011;16752;53.364;-1.488;2023-05-10T11:10:06;5.28;;;2.13;;
29878;SDS011;16752;53.364;-1.488;2023-05-10T11:12:53;6.07;;;2.22;;
29878;SDS011;16752;53.364;-1.488;2023-05-10T11:15:50;7.03;;;2.05;;
29878;SDS011;16752;53.364;-1.488;2023-05-10T11:18:35;3.70;;;2.47;;
29878;SDS011;16752;53.364;-1.488;2023-05-10T11:21:21;7.72;;;2.85;;
29878;SDS011;16752;53.364;-1.488;2023-05-10T11:24:09;4.00;;;2.20;;
29878;SDS011;16752;53.364;-1.488;2023-05-10T11:26:57;4.85;;;2.55;;
29878;SDS011;16752;53.364;-1.488;2023-05-10T11:29:42;1.77;;;1.67;;
29878;SDS011;16752;53.364;-1.488;2023-05-10T11:32:27;4.20;;;2.53;;
29878;SDS011;16752;53.364;-1.488;2023-05-10T11:35:11;4.05;;;1.40;;
29878;SDS011;16752;53.364;-1.488;2023-05-10T11:37:55;1.83;;;1.33;;
29878;SDS011;16752;53.364;-1.488;2023-05-10T11:40:40;4.78;;;1.38;;
29878;SDS011;16752;53.364;-1.488;2023-05-10T11:43:26;2.50;;;0.75;;
29878;SDS011;16752;53.364;-1.488;2023-05-10T11:46:14;1.85;;;1.00;;
29878;SDS011;16752;53.364;-1.488;2023-05-10T11:48:59;1.45;;;1.02;;
29878;SDS011;16752;53.364;-1.488;2023-05-10T11:51:45;1.83;;;1.05;;
29878;SDS011;16752;53.364;-1.488;2023-05-10T11:54:30;2.55;;;1.00;;
29878;SDS011;16752;53.364;-1.488;2023-05-10T11:57:14;5.45;;;1.73;;
29878;SDS011;16752;53.364;-1.488;2023-05-10T11:59:58;3.45;;;1.35;;
29878;SDS011;16752;53.364;-1.488;2023-05-10T12:02:44;1.45;;;1.17;;
29878;SDS011;16752;53.364;-1.488;2023-05-10T12:05:31;2.53;;;1.20;;
29878;SDS011;16752;53.364;-1.488;2023-05-10T12:08:19;1.75;;;0.95;;
29878;SDS011;16752;53.364;-1.488;2023-05-10T12:11:08;1.15;;;0.80;;
29878;SDS011;16752;53.364;-1.488;2023-05-10T12:13:57;1.38;;;1.15;;
29878;SDS011;16752;53.364;-1.488;2023-05-10T12:16:42;6.85;;;2.05;;
29878;SDS011;16752;53.364;-1.488;2023-05-10T12:19:27;3.15;;;1.70;;
29878;SDS011;16752;53.364;-1.488;2023-05-10T12:22:10;2.67;;;1.23;;
29878;SDS011;16752;53.364;-1.488;2023-05-10T12:24:54;3.13;;;1.50;;
29878;SDS011;16752;53.364;-1.488;2023-05-10T12:27:38;0.85;;;0.70;;
29878;SDS011;16752;53.364;-1.488;2023-05-10T12:30:23;1.13;;;0.68;;
29878;SDS011;16752;53.364;-1.488;2023-05-10T12:33:12;0.80;;;0.75;;
29878;SDS011;16752;53.364;-1.488;2023-05-10T12:35:58;2.08;;;0.60;;
29878;SDS011;16752;53.364;-1.488;2023-05-10T12:38:44;2.80;;;0.90;;
29878;SDS011;16752;53.364;-1.488;2023-05-10T12:41:32;0.80;;;0.80;;
29878;SDS011;16752;53.364;-1.488;2023-05-10T12:44:16;3.90;;;0.85;;
29878;SDS011;16752;53.364;-1.488;2023-05-10T12:47:00;4.55;;;1.15;;
29878;SDS011;16752;53.364;-1.488;2023-05-10T12:49:44;1.85;;;0.70;;
29878;SDS011;16752;53.364;-1.488;2023-05-10T12:52:28;4.45;;;0.80;;
29878;SDS011;16752;53.364;-1.488;2023-05-10T12:55:13;1.65;;;0.65;;
29878;SDS011;16752;53.364;-1.488;2023-05-10T12:57:57;1.38;;;0.90;;
29878;SDS011;16752;53.364;-1.488;2023-05-10T13:00:41;1.85;;;0.80;;
29878;SDS011;16752;53.364;-1.488;2023-05-10T13:03:25;1.83;;;0.80;;
29878;SDS011;16752;53.364;-1.488;2023-05-10T13:06:15;1.27;;;0.90;;
29878;SDS011;16752;53.364;-1.488;2023-05-10T13:08:59;1.85;;;0.80;;
29878;SDS011;16752;53.364;-1.488;2023-05-10T13:11:43;0.68;;;0.68;;
29878;SDS011;16752;53.364;-1.488;2023-05-10T13:14:27;1.05;;;0.95;;
29878;SDS011;16752;53.364;-1.488;2023-05-10T13:17:11;1.20;;;0.73;;
29878;SDS011;16752;53.364;-1.488;2023-05-10T13:19:55;0.90;;;0.73;;
29878;SDS011;16752;53.364;-1.488;2023-05-10T13:22:40;1.58;;;1.13;;
29878;SDS011;16752;53.364;-1.488;2023-05-10T13:25:25;0.93;;;0.93;;
29878;SDS011;16752;53.364;-1.488;2023-05-10T13:28:13;2.05;;;0.77;;
29878;SDS011;16752;53.364;-1.488;2023-05-10T13:30:57;3.60;;;1.00;;
29878;SDS011;16752;53.364;-1.488;2023-05-10T13:33:46;3.22;;;1.02;;
29878;SDS011;16752;53.364;-1.488;2023-05-10T13:36:51;5.53;;;1.20;;
29878;SDS011;16752;53.364;-1.488;2023-05-10T13:39:38;2.13;;;0.98;;
29878;SDS011;16752;53.364;-1.488;2023-05-10T13:42:27;3.28;;;1.50;;
29878;SDS011;16752;53.364;-1.488;2023-05-10T13:45:18;3.20;;;0.80;;
29878;SDS011;16752;53.364;-1.488;2023-05-10T13:48:18;2.20;;;0.98;;
29878;SDS011;16752;53.364;-1.488;2023-05-10T13:54:26;1.35;;;1.25;;
29878;SDS011;16752;53.364;-1.488;2023-05-10T13:57:46;2.53;;;1.13;;
29878;SDS011;16752;53.364;-1.488;2023-05-10T14:00:32;0.90;;;0.90;;
29878;SDS011;16752;53.364;-1.488;2023-05-10T14:03:17;2.25;;;1.25;;
29878;SDS011;16752;53.364;-1.488;2023-05-10T14:06:01;2.85;;;1.40;;
29878;SDS011;16752;53.364;-1.488;2023-05-10T14:08:46;4.22;;;1.77;;
29878;SDS011;16752;53.364;-1.488;2023-05-10T14:11:30;3.28;;;1.60;;
29878;SDS011;16752;53.364;-1.488;2023-05-10T14:14:15;4.38;;;1.13;;
29878;SDS011;16752;53.364;-1.488;2023-05-10T14:17:05;1.52;;;1.20;;
29878;SDS011;16752;53.364;-1.488;2023-05-10T14:22:56;1.98;;;1.30;;
29878;SDS011;16752;53.364;-1.488;2023-05-10T14:25:48;1.30;;;0.85;;
29878;SDS011;16752;53.364;-1.488;2023-05-10T14:28:45;1.48;;;0.90;;
29878;SDS011;16752;53.364;-1.488;2023-05-10T14:31:30;1.23;;;0.77;;
29878;SDS011;16752;53.364;-1.488;2023-05-10T14:34:15;1.02;;;0.80;;
29878;SDS011;16752;53.364;-1.488;2023-05-10T14:37:07;0.98;;;0.60;;
29878;SDS011;16752;53.364;-1.488;2023-05-10T14:46:27;2.92;;;1.10;;
29878;SDS011;16752;53.364;-1.488;2023-05-10T14:53:08;0.88;;;0.88;;
29878;SDS011;16752;53.364;-1.488;2023-05-10T14:56:01;1.30;;;1.20;;
29878;SDS011;16752;53.364;-1.488;2023-05-10T14:58:55;1.13;;;1.02;;
29878;SDS011;16752;53.364;-1.488;2023-05-10T15:01:49;0.68;;;0.68;;
29878;SDS011;16752;53.364;-1.488;2023-05-10T15:04:42;1.50;;;1.15;;
29878;SDS011;16752;53.364;-1.488;2023-05-10T15:07:29;1.20;;;0.93;;
29878;SDS011;16752;53.364;-1.488;2023-05-10T15:10:15;1.10;;;0.80;;
29878;SDS011;16752;53.364;-1.488;2023-05-10T15:13:03;4.45;;;0.90;;
29878;SDS011;16752;53.364;-1.488;2023-05-10T15:15:48;0.98;;;0.75;;
29878;SDS011;16752;53.364;-1.488;2023-05-10T15:18:32;1.20;;;1.10;;
29878;SDS011;16752;53.364;-1.488;2023-05-10T15:21:30;0.68;;;0.68;;
29878;SDS011;16752;53.364;-1.488;2023-05-10T15:24:21;2.22;;;0.68;;
29878;SDS011;16752;53.364;-1.488;2023-05-10T15:27:13;0.60;;;0.60;;
29878;SDS011;16752;53.364;-1.488;2023-05-10T15:30:02;0.75;;;0.55;;
29878;SDS011;16752;53.364;-1.488;2023-05-10T15:32:49;1.63;;;0.80;;
29878;SDS011;16752;53.364;-1.488;2023-05-10T15:35:44;1.40;;;0.77;;
29878;SDS011;16752;53.364;-1.488;2023-05-10T15:38:31;1.10;;;0.75;;
29878;SDS011;16752;53.364;-1.488;2023-05-10T15:41:15;1.10;;;0.70;;
29878;SDS011;16752;53.364;-1.488;2023-05-10T15:44:01;4.78;;;1.35;;
29878;SDS011;16752;53.364;-1.488;2023-05-10T15:46:46;1.70;;;1.40;;
29878;SDS011;16752;53.364;-1.488;2023-05-10T15:49:30;1.48;;;1.38;;
29878;SDS011;16752;53.364;-1.488;2023-05-10T15:52:14;1.23;;;1.13;;
29878;SDS011;16752;53.364;-1.488;2023-05-10T15:54:59;1.38;;;1.27;;
29878;SDS011;16752;53.364;-1.488;2023-05-10T15:57:43;1.48;;;1.38;;
29878;SDS011;16752;53.364;-1.488;2023-05-10T16:00:27;1.55;;;1.20;;
29878;SDS011;16752;53.364;-1.488;2023-05-10T16:03:11;3.15;;;1.30;;
29878;SDS011;16752;53.364;-1.488;2023-05-10T16:05:56;3.40;;;1.10;;
29878;SDS011;16752;53.364;-1.488;2023-05-10T16:08:40;2.58;;;1.25;;
29878;SDS011;16752;53.364;-1.488;2023-05-10T16:11:24;3.20;;;1.20;;
29878;SDS011;16752;53.364;-1.488;2023-05-10T16:14:08;3.28;;;1.20;;
29878;SDS011;16752;53.364;-1.488;2023-05-10T16:16:53;3.42;;;1.15;;
29878;SDS011;16752;53.364;-1.488;2023-05-10T16:19:37;2.42;;;0.95;;
29878;SDS011;16752;53.364;-1.488;2023-05-10T16:22:24;2.38;;;1.38;;
29878;SDS011;16752;53.364;-1.488;2023-05-10T16:25:41;1.55;;;1.33;;
29878;SDS011;16752;53.364;-1.488;2023-05-10T16:28:26;3.42;;;1.40;;
29878;SDS011;16752;53.364;-1.488;2023-05-10T16:31:10;3.13;;;1.40;;
29878;SDS011;16752;53.364;-1.488;2023-05-10T16:33:55;1.60;;;0.82;;
29878;SDS011;16752;53.364;-1.488;2023-05-10T16:36:38;0.98;;;0.68;;
29878;SDS011;16752;53.364;-1.488;2023-05-10T16:39:23;0.73;;;0.50;;
29878;SDS011;16752;53.364;-1.488;2023-05-10T16:42:07;1.92;;;0.65;;
29878;SDS011;16752;53.364;-1.488;2023-05-10T16:44:51;1.85;;;0.60;;
29878;SDS011;16752;53.364;-1.488;2023-05-10T16:47:37;1.38;;;0.60;;
29878;SDS011;16752;53.364;-1.488;2023-05-10T16:50:21;0.98;;;0.60;;
29878;SDS011;16752;53.364;-1.488;2023-05-10T16:53:05;1.58;;;0.60;;
29878;SDS011;16752;53.364;-1.488;2023-05-10T16:55:50;1.67;;;0.60;;
29878;SDS011;16752;53.364;-1.488;2023-05-10T16:58:34;1.85;;;0.85;;
29878;SDS011;16752;53.364;-1.488;2023-05-10T17:01:18;4.53;;;0.63;;
29878;SDS011;16752;53.364;-1.488;2023-05-10T17:04:02;2.00;;;0.60;;
29878;SDS011;16752;53.364;-1.488;2023-05-10T17:06:47;0.55;;;0.50;;
29878;SDS011;16752;53.364;-1.488;2023-05-10T17:09:30;2.65;;;0.95;;
29878;SDS011;16752;53.364;-1.488;2023-05-10T17:12:14;1.55;;;0.70;;
29878;SDS011;16752;53.364;-1.488;2023-05-10T17:14:58;0.60;;;0.60;;
29878;SDS011;16752;53.364;-1.488;2023-05-10T17:17:42;1.75;;;0.60;;
29878;SDS011;16752;53.364;-1.488;2023-05-10T17:20:26;1.58;;;0.80;;
29878;SDS011;16752;53.364;-1.488;2023-05-10T17:23:10;0.98;;;0.70;;
29878;SDS011;16752;53.364;-1.488;2023-05-10T17:25:54;1.95;;;0.68;;
29878;SDS011;16752;53.364;-1.488;2023-05-10T17:28:39;0.40;;;0.40;;